ePrivacy and GPDR Cookie Consent by Cookie Consent
EmailTwitter


Observations de surface / Royaume-Uni / EGLL (03772)

Régions: Québec | Canada | États-Unis | Europe | France | UK | Ailleurs
Station
Affichage
Infos & localisation pour EGLL (03772) | Aide pour décoder les METARs

Observations prises le 2022-08-08 à 16H50 UTC à LONDON/HEATHROW, UK (EGLL)

Température: 28.0 Celsius

Point de rosée: 11.0 Celsius

Humidité relative: 35%

Indice Humidex 30.

Vents: Est-nord-est à 13 km/h ou 7 noeuds.

Pression au niveau moyen de la mer: 102.50 kilopascals.

Visibilité horizontale: 6.21 milles terrestres ou 9.94 kilomètres.

Observation METAR:

EGLL 081650Z AUTO 07007KT 020V110 9999 NCD 28/11 Q1025=